createdAt,value
2019-05-21T00:00:39.263Z,35.43
2019-05-21T00:01:43.725Z,34.80
2019-05-21T00:02:48.798Z,40.28
2019-05-21T00:03:53.237Z,35.58
2019-05-21T00:04:58.240Z,34.98
2019-05-21T00:06:02.794Z,35.80
2019-05-21T00:07:08.927Z,33.53
2019-05-21T00:08:13.366Z,33.42
2019-05-21T00:09:18.342Z,32.00
2019-05-21T00:10:22.870Z,31.85
2019-05-21T00:11:27.855Z,29.15
2019-05-21T00:12:32.295Z,27.52
2019-05-21T00:13:38.895Z,25.35
2019-05-21T00:14:43.631Z,28.10
2019-05-21T00:15:48.614Z,29.63
2019-05-21T00:16:53.045Z,31.95
2019-05-21T00:17:58.056Z,30.97
2019-05-21T00:19:02.796Z,33.55
2019-05-21T00:20:08.126Z,34.95
2019-05-21T00:21:12.550Z,35.00
2019-05-21T00:22:17.843Z,34.23
2019-05-21T00:23:22.690Z,33.35
2019-05-21T00:24:27.870Z,32.42
2019-05-21T00:25:32.409Z,32.35
2019-05-21T00:26:37.458Z,32.30
2019-05-21T00:27:41.977Z,32.05
2019-05-21T00:29:22.965Z,31.40
2019-05-21T00:31:03.982Z,30.77
2019-05-21T00:32:44.973Z,31.02
2019-05-21T00:34:26.104Z,29.77
2019-05-21T00:36:07.572Z,29.48
2019-05-21T00:37:48.723Z,28.70
2019-05-21T00:39:29.984Z,29.60
2019-05-21T00:41:12.753Z,30.25
2019-05-21T00:42:30.184Z,31.85
2019-05-21T00:43:43.544Z,28.98
2019-05-21T00:44:48.522Z,32.53
2019-05-21T00:45:53.275Z,32.30
2019-05-21T00:46:58.555Z,33.18
2019-05-21T00:48:05.692Z,31.20
2019-05-21T00:49:09.704Z,31.77
2019-05-21T00:50:14.478Z,34.08
2019-05-21T00:51:19.470Z,33.53
2019-05-21T00:52:24.931Z,33.88
2019-05-21T00:53:30.002Z,33.67
2019-05-21T00:54:34.493Z,35.17
2019-05-21T00:55:40.442Z,37.75
2019-05-21T00:56:44.861Z,37.42
2019-05-21T00:57:49.906Z,36.15
2019-05-21T00:58:54.353Z,37.25
2019-05-21T00:59:59.329Z,37.42
2019-05-21T01:01:03.825Z,38.67
2019-05-21T01:02:08.803Z,37.78
2019-05-21T01:03:13.253Z,36.35
2019-05-21T01:04:18.357Z,36.33
2019-05-21T01:05:23.257Z,38.25
2019-05-21T01:06:28.620Z,35.30
2019-05-21T01:07:34.445Z,35.05
2019-05-21T01:08:39.546Z,36.42
2019-05-21T01:09:44.304Z,36.55
2019-05-21T01:10:49.287Z,37.15
2019-05-21T01:11:53.846Z,35.78
2019-05-21T01:12:58.826Z,36.83
2019-05-21T01:14:03.431Z,37.93
2019-05-21T01:15:08.639Z,36.35
2019-05-21T01:16:13.068Z,36.28
2019-05-21T01:17:18.057Z,37.03
2019-05-21T01:18:22.494Z,36.53
2019-05-21T01:19:27.477Z,38.05
2019-05-21T01:20:31.899Z,37.90
2019-05-21T01:21:36.941Z,37.90
2019-05-21T01:22:41.381Z,39.00
2019-05-21T01:23:46.434Z,37.55
2019-05-21T01:24:51.148Z,36.35
2019-05-21T01:25:56.132Z,37.98
2019-05-21T01:27:00.550Z,36.03
2019-05-21T01:28:05.632Z,36.63
2019-05-21T01:29:11.188Z,35.08
2019-05-21T01:30:16.773Z,36.42
2019-05-21T01:31:21.218Z,36.73
2019-05-21T01:32:26.184Z,37.55
2019-05-21T01:33:30.626Z,39.27
2019-05-21T01:34:35.864Z,37.75
2019-05-21T01:35:40.568Z,38.42
2019-05-21T01:36:45.557Z,36.85
2019-05-21T01:37:49.986Z,35.28
2019-05-21T01:38:55.434Z,36.65
2019-05-21T01:39:59.904Z,36.68
2019-05-21T01:41:05.276Z,35.50
2019-05-21T01:42:09.703Z,36.88
2019-05-21T01:43:14.681Z,34.27
2019-05-21T01:44:19.129Z,35.75
2019-05-21T01:45:25.203Z,35.85
2019-05-21T01:46:29.634Z,39.65
2019-05-21T01:47:34.682Z,35.92
2019-05-21T01:48:39.132Z,35.38
2019-05-21T01:49:44.110Z,34.85
2019-05-21T01:50:48.879Z,33.95
2019-05-21T01:51:54.043Z,35.35
2019-05-21T01:52:58.538Z,36.08
2019-05-21T01:54:03.542Z,40.12
2019-05-21T01:55:08.225Z,39.27
2019-05-21T01:56:13.741Z,40.80
2019-05-21T01:57:19.524Z,38.38
2019-05-21T01:58:24.629Z,38.33
2019-05-21T01:59:29.105Z,38.78
2019-05-21T02:00:34.165Z,39.58
2019-05-21T02:01:38.597Z,41.15
2019-05-21T02:02:43.568Z,38.30
2019-05-21T02:03:48.019Z,40.78
2019-05-21T02:04:53.084Z,39.18
2019-05-21T02:05:57.573Z,40.75
2019-05-21T02:07:02.550Z,39.30
2019-05-21T02:08:07.043Z,40.80
2019-05-21T02:09:12.048Z,40.70
2019-05-21T02:10:16.553Z,38.98
2019-05-21T02:11:21.628Z,41.68
2019-05-21T02:12:26.789Z,39.15
2019-05-21T02:13:31.848Z,39.90
2019-05-21T02:14:36.299Z,39.67
2019-05-21T02:15:41.286Z,37.95
2019-05-21T02:16:45.736Z,39.90
2019-05-21T02:17:50.737Z,37.83
2019-05-21T02:18:55.183Z,37.45
2019-05-21T02:20:00.195Z,37.20
2019-05-21T02:21:06.120Z,39.05
2019-05-21T02:22:11.105Z,37.05
2019-05-21T02:23:15.536Z,37.28
2019-05-21T02:24:20.831Z,35.08
2019-05-21T02:25:25.265Z,36.00
2019-05-21T02:26:30.251Z,35.52
2019-05-21T02:27:34.674Z,36.83
2019-05-21T02:28:40.736Z,36.13
2019-05-21T02:29:45.517Z,34.53
2019-05-21T02:30:50.510Z,35.40
2019-05-21T02:31:56.014Z,36.10
2019-05-21T02:33:01.005Z,35.55
2019-05-21T02:34:05.499Z,35.13
2019-05-21T02:35:10.648Z,34.95
2019-05-21T02:36:15.389Z,35.50
2019-05-21T02:37:20.384Z,38.28
2019-05-21T02:38:24.802Z,34.48
2019-05-21T02:39:29.824Z,35.52
2019-05-21T02:40:34.309Z,34.35
2019-05-21T02:41:39.296Z,34.95
2019-05-21T02:42:43.726Z,35.70
2019-05-21T02:43:48.704Z,34.08
2019-05-21T02:44:54.589Z,32.85
2019-05-21T02:45:59.784Z,32.42
2019-05-21T02:47:04.270Z,32.75
2019-05-21T02:48:09.398Z,32.33
2019-05-21T02:49:13.895Z,33.73
2019-05-21T02:50:19.204Z,31.27
2019-05-21T02:51:23.627Z,32.48
2019-05-21T02:52:28.611Z,32.50
2019-05-21T02:53:34.483Z,32.23
2019-05-21T02:54:41.723Z,33.58
2019-05-21T02:55:45.963Z,31.82
2019-05-21T02:56:50.927Z,32.53
2019-05-21T02:57:55.349Z,32.63
2019-05-21T02:59:00.624Z,32.50
2019-05-21T03:00:07.948Z,31.15
2019-05-21T03:01:17.496Z,32.90
2019-05-21T03:02:25.505Z,32.67
2019-05-21T03:03:32.491Z,33.00
2019-05-21T03:04:36.937Z,30.68
2019-05-21T03:05:41.989Z,31.48
2019-05-21T03:06:46.477Z,32.48
2019-05-21T03:07:51.856Z,30.85
2019-05-21T03:08:56.311Z,32.15
2019-05-21T03:10:01.743Z,32.95
2019-05-21T03:11:06.633Z,31.12
2019-05-21T03:12:11.594Z,31.42
2019-05-21T03:13:16.038Z,32.83
2019-05-21T03:14:21.161Z,31.12
2019-05-21T03:15:25.757Z,31.07
2019-05-21T03:16:31.030Z,27.85
2019-05-21T03:17:35.544Z,27.40
2019-05-21T03:18:40.807Z,29.37
2019-05-21T03:19:45.315Z,27.62
2019-05-21T03:20:50.318Z,29.40
2019-05-21T03:21:54.746Z,28.62
2019-05-21T03:22:59.800Z,27.75
2019-05-21T03:24:04.390Z,27.02
2019-05-21T03:25:09.911Z,28.77
2019-05-21T03:26:14.339Z,27.20
2019-05-21T03:27:19.312Z,27.10
2019-05-21T03:28:24.013Z,26.77
2019-05-21T03:29:29.139Z,27.15
2019-05-21T03:30:33.595Z,25.62
2019-05-21T03:31:38.622Z,27.80
2019-05-21T03:32:43.031Z,28.47
2019-05-21T03:33:48.321Z,28.70
2019-05-21T03:34:52.791Z,28.80
2019-05-21T03:35:58.361Z,29.55
2019-05-21T03:37:03.014Z,28.02
2019-05-21T03:38:09.369Z,27.07
2019-05-21T03:39:13.875Z,26.62
2019-05-21T03:40:18.943Z,26.62
2019-05-21T03:41:23.498Z,27.30
2019-05-21T03:42:28.819Z,29.25
2019-05-21T03:43:33.397Z,26.33
2019-05-21T03:44:56.316Z,27.02
2019-05-21T03:45:45.066Z,25.70
2019-05-21T03:46:50.501Z,25.50
2019-05-21T03:47:55.230Z,27.58
2019-05-21T03:49:00.754Z,28.70
2019-05-21T03:50:06.514Z,25.35
2019-05-21T03:51:11.825Z,25.55
2019-05-21T03:52:16.767Z,26.17
2019-05-21T03:53:22.086Z,26.57
2019-05-21T03:54:26.702Z,30.55
2019-05-21T03:55:32.231Z,27.17
2019-05-21T03:56:36.969Z,27.13
2019-05-21T03:57:42.265Z,26.45
2019-05-21T03:58:47.304Z,26.87
2019-05-21T03:59:52.641Z,25.68
2019-05-21T04:00:57.417Z,25.70
2019-05-21T04:02:02.448Z,23.92
2019-05-21T04:03:07.254Z,25.40
2019-05-21T04:04:12.231Z,23.80
2019-05-21T04:05:25.167Z,26.60
2019-05-21T04:06:30.375Z,26.42
2019-05-21T04:07:34.907Z,26.12
2019-05-21T04:08:39.905Z,25.10
2019-05-21T04:09:44.614Z,22.48
2019-05-21T04:10:49.628Z,24.05
2019-05-21T04:11:54.081Z,22.90
2019-05-21T04:13:08.751Z,23.00
2019-05-21T04:14:15.242Z,23.92
2019-05-21T04:15:23.991Z,23.32
2019-05-21T04:16:42.400Z,24.23
2019-05-21T04:17:54.130Z,23.42
2019-05-21T04:19:03.176Z,23.92
2019-05-21T04:20:08.451Z,22.52
2019-05-21T04:21:13.760Z,22.00
2019-05-21T04:22:18.614Z,23.98
2019-05-21T04:23:23.598Z,24.95
2019-05-21T04:24:28.030Z,24.65
2019-05-21T04:25:33.282Z,24.47
2019-05-21T04:26:38.171Z,22.65
2019-05-21T04:27:43.152Z,22.85
2019-05-21T04:28:47.576Z,25.15
2019-05-21T04:29:52.568Z,25.43
2019-05-21T04:30:57.067Z,23.38
2019-05-21T04:32:01.997Z,23.92
2019-05-21T04:33:06.510Z,24.77
2019-05-21T04:34:11.748Z,22.00
2019-05-21T04:35:16.814Z,24.43
2019-05-21T04:36:22.875Z,24.07
2019-05-21T04:37:27.699Z,23.10
2019-05-21T04:38:42.731Z,23.60
2019-05-21T04:39:48.226Z,21.73
2019-05-21T04:40:53.205Z,21.33
2019-05-21T04:41:57.733Z,22.15
2019-05-21T04:43:02.948Z,21.90
2019-05-21T04:44:08.426Z,23.45
2019-05-21T04:45:14.220Z,23.60
2019-05-21T04:46:19.079Z,24.23
2019-05-21T04:47:24.470Z,25.27
2019-05-21T04:48:29.578Z,26.23
2019-05-21T04:49:34.848Z,24.23
2019-05-21T04:50:39.292Z,22.35
2019-05-21T04:51:44.290Z,23.92
2019-05-21T04:52:48.711Z,22.85
2019-05-21T04:53:54.024Z,23.73
2019-05-21T04:54:59.109Z,24.10
2019-05-21T04:56:06.116Z,26.35
2019-05-21T04:57:10.566Z,24.60
2019-05-21T04:58:15.552Z,24.98
2019-05-21T04:59:20.454Z,27.37
2019-05-21T05:00:26.895Z,26.55
2019-05-21T05:01:32.478Z,26.85
2019-05-21T05:02:37.923Z,22.32
2019-05-21T05:03:42.353Z,22.40
2019-05-21T05:04:47.339Z,21.70
2019-05-21T05:05:51.845Z,23.87
2019-05-21T05:06:56.899Z,23.35
2019-05-21T05:08:01.392Z,25.08
2019-05-21T05:09:07.309Z,25.55
2019-05-21T05:10:12.140Z,25.80
2019-05-21T05:11:17.192Z,24.95
2019-05-21T05:12:22.084Z,22.93
2019-05-21T05:13:27.047Z,22.98
2019-05-21T05:14:31.473Z,19.92
2019-05-21T05:15:36.456Z,21.20
2019-05-21T05:16:40.942Z,21.57
2019-05-21T05:17:45.939Z,21.52
2019-05-21T05:18:50.708Z,20.30
2019-05-21T05:19:55.694Z,21.85
2019-05-21T05:21:00.457Z,22.60
2019-05-21T05:22:05.569Z,26.30
2019-05-21T05:23:10.097Z,25.55
2019-05-21T05:24:15.075Z,22.35
2019-05-21T05:25:20.144Z,21.62
2019-05-21T05:26:25.192Z,21.55
2019-05-21T05:27:29.636Z,20.40
2019-05-21T05:28:34.610Z,21.57
2019-05-21T05:29:39.037Z,21.70
2019-05-21T05:30:44.014Z,20.62
2019-05-21T05:31:48.437Z,21.95
2019-05-21T05:32:54.502Z,23.32
2019-05-21T05:34:02.159Z,21.52
2019-05-21T05:35:08.500Z,20.85
2019-05-21T05:36:13.150Z,20.27
2019-05-21T05:37:18.153Z,21.33
2019-05-21T05:38:22.591Z,20.02
2019-05-21T05:39:27.895Z,18.02
2019-05-21T05:40:32.532Z,20.05
2019-05-21T05:41:37.582Z,20.05
2019-05-21T05:42:42.300Z,20.52
2019-05-21T05:43:47.300Z,21.27
2019-05-21T05:44:51.954Z,19.73
2019-05-21T05:45:56.942Z,19.17
2019-05-21T05:47:01.757Z,20.15
2019-05-21T05:48:06.817Z,19.45
2019-05-21T05:49:21.944Z,18.48
2019-05-21T05:51:56.035Z,18.30
2019-05-21T05:53:00.924Z,17.80
2019-05-21T05:54:07.696Z,18.12
2019-05-21T05:55:12.804Z,17.80
2019-05-21T05:56:17.481Z,16.97
2019-05-21T05:57:22.333Z,17.35
2019-05-21T05:58:28.298Z,18.02
2019-05-21T05:59:33.090Z,16.90
2019-05-21T06:00:38.129Z,17.30
2019-05-21T06:01:42.924Z,17.82
2019-05-21T06:02:47.623Z,16.75
2019-05-21T06:03:52.477Z,17.48
2019-05-21T06:04:57.261Z,18.57
2019-05-21T06:06:02.404Z,19.23
2019-05-21T06:07:07.152Z,18.17
2019-05-21T06:08:12.352Z,19.55
2019-05-21T06:09:16.965Z,18.98
2019-05-21T06:10:22.189Z,17.73
2019-05-21T06:11:26.868Z,16.65
2019-05-21T06:12:31.668Z,17.23
2019-05-21T06:13:36.290Z,18.35
2019-05-21T06:14:41.390Z,19.25
2019-05-21T06:15:46.052Z,19.70
2019-05-21T06:16:51.282Z,19.35
2019-05-21T06:17:55.917Z,18.80
2019-05-21T06:19:00.710Z,21.07
2019-05-21T06:20:06.957Z,18.85
2019-05-21T06:21:11.744Z,18.82
2019-05-21T06:22:16.485Z,18.87
2019-05-21T06:23:22.188Z,19.12
2019-05-21T06:24:27.737Z,18.98
2019-05-21T06:25:32.587Z,18.90
2019-05-21T06:26:37.255Z,18.57
2019-05-21T06:27:42.132Z,18.35
2019-05-21T06:28:46.758Z,16.02
2019-05-21T06:29:51.687Z,18.25
2019-05-21T06:30:56.632Z,17.95
2019-05-21T06:32:01.448Z,17.20
2019-05-21T06:33:06.142Z,17.50
2019-05-21T06:34:11.016Z,17.70
2019-05-21T06:35:16.530Z,17.82
2019-05-21T06:36:21.877Z,17.12
2019-05-21T06:37:26.477Z,15.88
2019-05-21T06:38:31.301Z,15.85
2019-05-21T06:39:35.909Z,17.20
2019-05-21T06:40:40.719Z,16.85
2019-05-21T06:41:45.307Z,16.25
2019-05-21T06:42:50.099Z,16.07
2019-05-21T06:43:54.722Z,17.10
2019-05-21T06:44:59.515Z,16.87
2019-05-21T06:46:04.260Z,17.35
2019-05-21T06:47:09.060Z,16.60
2019-05-21T06:48:13.742Z,17.60
2019-05-21T06:49:18.770Z,16.52
2019-05-21T06:50:23.382Z,16.85
2019-05-21T06:51:28.183Z,16.50
2019-05-21T06:52:32.790Z,16.20
2019-05-21T06:53:37.674Z,17.05
2019-05-21T06:54:42.281Z,17.60
2019-05-21T06:55:47.079Z,16.77
2019-05-21T06:56:51.750Z,16.45
2019-05-21T06:57:56.548Z,16.20
2019-05-21T06:59:01.537Z,16.27
2019-05-21T07:00:09.550Z,16.12
2019-05-21T07:01:14.146Z,16.55
2019-05-21T07:02:19.572Z,16.30
2019-05-21T07:03:24.199Z,17.80
2019-05-21T07:04:29.077Z,16.25
2019-05-21T07:05:33.685Z,15.13
2019-05-21T07:06:38.471Z,15.20
2019-05-21T07:07:43.142Z,16.35
2019-05-21T07:08:48.424Z,16.05
2019-05-21T07:09:53.094Z,16.73
2019-05-21T07:10:57.905Z,16.60
2019-05-21T07:12:02.502Z,15.83
2019-05-21T07:13:07.298Z,16.20
2019-05-21T07:14:11.950Z,15.25
2019-05-21T07:15:16.981Z,14.30
2019-05-21T07:16:21.584Z,13.65
2019-05-21T07:17:26.648Z,13.58
2019-05-21T07:18:31.263Z,13.78
2019-05-21T07:19:36.252Z,14.63
2019-05-21T07:20:40.918Z,15.70
2019-05-21T07:21:45.797Z,14.98
2019-05-21T07:22:50.661Z,15.18
2019-05-21T07:23:55.470Z,15.75
2019-05-21T07:25:00.069Z,14.47
2019-05-21T07:26:14.708Z,15.24
2019-05-21T07:27:19.312Z,14.93
2019-05-21T07:28:24.182Z,14.40
2019-05-21T07:29:28.797Z,14.10
2019-05-21T07:30:33.655Z,14.58
2019-05-21T07:31:38.647Z,14.98
2019-05-21T07:32:43.542Z,14.33
2019-05-21T07:33:48.246Z,14.55
2019-05-21T07:34:53.168Z,14.00
2019-05-21T07:35:57.743Z,11.63
2019-05-21T07:37:02.538Z,11.85
2019-05-21T07:38:08.591Z,12.30
2019-05-21T07:39:13.453Z,11.28
2019-05-21T07:40:18.799Z,10.40
2019-05-21T07:41:23.639Z,9.70
2019-05-21T07:42:28.308Z,10.00
2019-05-21T07:43:33.360Z,9.38
2019-05-21T07:44:37.965Z,9.75
2019-05-21T07:45:42.824Z,10.78
2019-05-21T07:46:47.570Z,11.55
2019-05-21T07:47:52.664Z,14.05
2019-05-21T07:48:57.265Z,13.15
2019-05-21T07:50:02.152Z,13.30
2019-05-21T07:51:08.244Z,13.93
2019-05-21T07:52:13.040Z,13.98
2019-05-21T07:53:17.648Z,14.18
2019-05-21T07:54:22.453Z,13.50
2019-05-21T07:55:27.123Z,12.78
2019-05-21T07:56:31.938Z,14.00
2019-05-21T07:57:36.612Z,12.55
2019-05-21T07:58:41.404Z,12.53
2019-05-21T07:59:46.161Z,12.10
2019-05-21T08:00:51.027Z,11.57
2019-05-21T08:01:55.722Z,12.30
2019-05-21T08:03:00.526Z,11.12
2019-05-21T08:04:06.303Z,11.97
2019-05-21T08:05:11.398Z,12.00
2019-05-21T08:06:16.090Z,11.97
2019-05-21T08:07:20.883Z,11.75
2019-05-21T08:08:26.022Z,11.57
2019-05-21T08:09:30.969Z,12.50
2019-05-21T08:10:36.028Z,12.13
2019-05-21T08:11:40.957Z,11.63
2019-05-21T08:12:45.569Z,11.25
2019-05-21T08:13:50.362Z,12.07
2019-05-21T08:14:54.977Z,11.38
2019-05-21T08:15:59.839Z,11.05
2019-05-21T08:17:04.510Z,11.45
2019-05-21T08:18:09.673Z,11.70
2019-05-21T08:19:14.352Z,11.33
2019-05-21T08:20:20.225Z,10.70
2019-05-21T08:21:24.847Z,11.45
2019-05-21T08:22:29.962Z,10.82
2019-05-21T08:23:34.569Z,10.93
2019-05-21T08:24:39.400Z,11.18
2019-05-21T08:25:44.128Z,10.65
2019-05-21T08:26:49.370Z,10.45
2019-05-21T08:27:54.021Z,9.88
2019-05-21T08:28:58.808Z,9.83
2019-05-21T08:30:03.877Z,9.45
2019-05-21T08:31:09.057Z,8.55
2019-05-21T08:32:13.724Z,8.23
2019-05-21T08:33:19.134Z,7.65
2019-05-21T08:34:24.381Z,8.40
2019-05-21T08:35:29.157Z,8.08
2019-05-21T08:36:34.056Z,8.10
2019-05-21T08:37:38.910Z,8.53
2019-05-21T08:38:43.495Z,8.28
2019-05-21T08:39:48.294Z,8.30
2019-05-21T08:40:52.889Z,7.65
2019-05-21T08:41:57.678Z,8.65
2019-05-21T08:43:02.360Z,7.37
2019-05-21T08:44:07.201Z,6.80
2019-05-21T08:45:12.553Z,7.47
2019-05-21T08:46:17.764Z,8.58
2019-05-21T08:47:22.502Z,7.92
2019-05-21T08:48:27.578Z,8.18
2019-05-21T08:49:32.315Z,8.10
2019-05-21T08:50:37.120Z,7.70
2019-05-21T08:51:41.791Z,6.50
2019-05-21T08:52:47.712Z,6.50
2019-05-21T08:53:52.647Z,7.17
2019-05-21T08:54:57.427Z,6.97
2019-05-21T08:56:02.159Z,6.28
2019-05-21T08:57:07.366Z,6.50
2019-05-21T08:58:12.493Z,6.20
2019-05-21T08:59:17.417Z,6.45
2019-05-21T09:00:25.765Z,6.20
2019-05-21T09:01:30.625Z,6.12
2019-05-21T09:02:35.226Z,7.17
2019-05-21T09:03:40.077Z,7.25
2019-05-21T09:04:46.787Z,4.42
2019-05-21T09:05:51.799Z,4.17
2019-05-21T09:06:56.397Z,4.20
2019-05-21T09:08:01.178Z,4.10
2019-05-21T09:09:06.719Z,4.42
2019-05-21T09:10:11.989Z,4.25
2019-05-21T09:11:16.662Z,4.45
2019-05-21T09:12:21.444Z,4.28
2019-05-21T09:13:26.104Z,7.37
2019-05-21T09:14:31.046Z,5.03
2019-05-21T09:15:35.655Z,4.17
2019-05-21T09:16:41.406Z,3.70
2019-05-21T09:17:46.000Z,4.00
2019-05-21T09:18:51.757Z,3.20
2019-05-21T09:19:56.872Z,3.35
2019-05-21T09:21:01.674Z,3.75
2019-05-21T09:22:06.411Z,4.05
2019-05-21T09:23:11.191Z,3.92
2019-05-21T09:24:15.786Z,4.22
2019-05-21T09:25:20.975Z,4.08
2019-05-21T09:26:25.569Z,4.20
2019-05-21T09:27:30.343Z,3.90
2019-05-21T09:28:35.015Z,4.20
2019-05-21T09:29:40.168Z,4.10
2019-05-21T09:30:45.346Z,2.80
2019-05-21T09:31:50.272Z,3.08
2019-05-21T09:32:54.938Z,2.72
2019-05-21T09:33:59.782Z,2.90
2019-05-21T09:35:06.606Z,3.17
2019-05-21T09:36:11.474Z,2.40
2019-05-21T09:37:19.592Z,2.65
2019-05-21T09:38:22.827Z,2.60
2019-05-21T09:39:27.423Z,3.15
2019-05-21T09:40:32.850Z,2.83
2019-05-21T09:41:37.583Z,2.65
2019-05-21T09:42:45.219Z,2.77
2019-05-21T09:43:48.795Z,3.20
2019-05-21T09:44:53.710Z,2.70
2019-05-21T09:45:58.398Z,2.62
2019-05-21T09:47:03.193Z,2.52
2019-05-21T09:48:07.901Z,2.55
2019-05-21T09:49:13.732Z,2.80
2019-05-21T09:50:19.235Z,3.27
2019-05-21T09:51:24.099Z,2.85
2019-05-21T09:52:28.766Z,3.00
2019-05-21T09:53:33.971Z,2.87
2019-05-21T09:54:38.662Z,3.10
2019-05-21T09:55:43.467Z,3.08
2019-05-21T09:56:48.192Z,2.85
2019-05-21T09:58:12.805Z,3.20
2019-05-21T09:59:34.358Z,3.30
2019-05-21T10:00:40.583Z,3.55
2019-05-21T10:01:48.212Z,3.02
2019-05-21T10:02:52.983Z,3.30
2019-05-21T10:03:59.720Z,3.10
2019-05-21T10:05:06.373Z,2.95
2019-05-21T10:06:11.499Z,2.80
2019-05-21T10:07:16.044Z,3.05
2019-05-21T10:08:21.016Z,3.15
2019-05-21T10:09:25.460Z,3.05
2019-05-21T10:10:30.733Z,2.92
2019-05-21T10:11:35.147Z,3.10
2019-05-21T10:12:40.185Z,2.95
2019-05-21T10:13:44.666Z,3.20
2019-05-21T10:14:49.635Z,3.17
2019-05-21T10:15:54.121Z,3.83
2019-05-21T10:17:00.152Z,3.50
2019-05-21T10:18:04.949Z,3.83
2019-05-21T10:19:09.989Z,4.12
2019-05-21T10:20:14.536Z,3.50
2019-05-21T10:21:19.790Z,3.25
2019-05-21T10:22:24.432Z,3.00
2019-05-21T10:23:29.465Z,3.47
2019-05-21T10:24:34.389Z,3.30
2019-05-21T10:25:39.514Z,3.20
2019-05-21T10:26:44.338Z,3.40
2019-05-21T10:27:49.303Z,2.90
2019-05-21T10:28:53.716Z,3.15
2019-05-21T10:29:58.675Z,3.22
2019-05-21T10:31:03.160Z,4.37
2019-05-21T10:32:08.217Z,3.05
2019-05-21T10:33:12.622Z,3.30
2019-05-21T10:34:17.668Z,3.05
2019-05-21T10:35:22.585Z,3.12
2019-05-21T10:36:27.618Z,3.37
2019-05-21T10:37:32.123Z,3.02
2019-05-21T10:38:37.160Z,3.35
2019-05-21T10:39:42.786Z,3.25
2019-05-21T10:40:47.822Z,2.80
2019-05-21T10:41:52.303Z,2.80
2019-05-21T10:42:57.291Z,2.72
2019-05-21T10:44:02.071Z,2.95
2019-05-21T10:45:07.876Z,2.90
2019-05-21T10:46:12.289Z,2.67
2019-05-21T10:47:17.274Z,3.00
2019-05-21T10:48:21.684Z,2.80
2019-05-21T10:49:26.720Z,3.10
2019-05-21T10:50:31.132Z,3.00
2019-05-21T10:51:36.172Z,2.95
2019-05-21T10:52:40.696Z,2.83
2019-05-21T10:53:45.896Z,2.75
2019-05-21T10:54:50.294Z,2.87
2019-05-21T10:55:55.408Z,2.83
2019-05-21T10:56:59.953Z,2.72
2019-05-21T10:58:05.080Z,2.67
2019-05-21T10:59:09.801Z,4.12
2019-05-21T11:00:23.023Z,3.15
2019-05-21T11:01:44.222Z,3.02
2019-05-21T11:02:50.538Z,2.92
2019-05-21T11:03:56.652Z,3.65
2019-05-21T11:05:11.723Z,2.65
2019-05-21T11:06:17.294Z,2.75
2019-05-21T11:07:23.047Z,3.47
2019-05-21T11:08:28.128Z,2.83
2019-05-21T11:09:32.795Z,2.62
2019-05-21T11:10:38.192Z,2.87
2019-05-21T11:11:42.607Z,2.45
2019-05-21T11:12:47.680Z,2.77
2019-05-21T11:13:52.104Z,2.50
2019-05-21T11:14:57.468Z,2.92
2019-05-21T11:16:01.976Z,2.80
2019-05-21T11:17:08.058Z,2.42
2019-05-21T11:18:12.631Z,2.60
2019-05-21T11:19:17.592Z,2.80
2019-05-21T11:20:22.156Z,3.10
2019-05-21T11:21:27.130Z,2.52
2019-05-21T11:22:31.528Z,4.08
2019-05-21T11:23:36.527Z,2.98
2019-05-21T11:24:40.936Z,2.37
2019-05-21T11:25:46.378Z,2.80
2019-05-21T11:26:50.868Z,2.60
2019-05-21T11:27:55.932Z,3.05
2019-05-21T11:29:00.341Z,3.00
2019-05-21T11:30:07.817Z,2.70
2019-05-21T11:31:12.299Z,2.60
2019-05-21T11:32:17.356Z,6.97
2019-05-21T11:33:21.775Z,4.15
2019-05-21T11:34:26.748Z,3.30
2019-05-21T11:35:31.395Z,2.90
2019-05-21T11:36:36.361Z,2.80
2019-05-21T11:37:40.841Z,2.50
2019-05-21T11:38:45.825Z,2.98
2019-05-21T11:39:50.306Z,2.80
2019-05-21T11:40:55.302Z,3.80
2019-05-21T11:41:59.707Z,3.20
2019-05-21T11:43:04.780Z,5.97
2019-05-21T11:44:09.335Z,3.02
2019-05-21T11:45:29.429Z,2.60
2019-05-21T11:46:20.746Z,2.60
2019-05-21T11:47:25.718Z,2.52
2019-05-21T11:48:30.215Z,2.10
2019-05-21T11:49:35.355Z,2.58
2019-05-21T11:50:40.204Z,2.10
2019-05-21T11:51:45.255Z,2.30
2019-05-21T11:52:49.840Z,2.55
2019-05-21T11:53:55.877Z,3.15
2019-05-21T11:55:00.315Z,2.40
2019-05-21T11:56:05.473Z,2.55
2019-05-21T11:57:09.949Z,2.27
2019-05-21T11:58:14.918Z,2.40
2019-05-21T11:59:19.352Z,2.20
2019-05-21T12:00:26.219Z,2.50
2019-05-21T12:01:31.168Z,2.40
2019-05-21T12:02:36.222Z,2.20
2019-05-21T12:03:40.647Z,2.75
2019-05-21T12:04:45.607Z,3.25
2019-05-21T12:05:50.466Z,3.30
2019-05-21T12:06:56.100Z,3.00
2019-05-21T12:08:00.516Z,2.58
2019-05-21T12:09:08.224Z,2.27
2019-05-21T12:10:13.316Z,2.22
2019-05-21T12:11:18.287Z,2.35
2019-05-21T12:12:22.739Z,2.40
2019-05-21T12:13:27.659Z,2.37
2019-05-21T12:14:32.145Z,2.47
2019-05-21T12:15:37.194Z,3.05
2019-05-21T12:16:41.623Z,2.62
2019-05-21T12:17:46.578Z,2.15
2019-05-21T12:18:51.063Z,2.40
2019-05-21T12:19:56.056Z,2.00
2019-05-21T12:21:00.471Z,1.90
2019-05-21T12:22:05.844Z,2.22
2019-05-21T12:23:10.253Z,1.90
2019-05-21T12:24:15.244Z,2.00
2019-05-21T12:25:20.082Z,2.12
2019-05-21T12:26:25.060Z,2.45
2019-05-21T12:27:29.549Z,2.22
2019-05-21T12:28:34.838Z,1.95
2019-05-21T12:29:39.271Z,2.80
2019-05-21T12:30:44.231Z,2.10
2019-05-21T12:31:48.711Z,2.30
2019-05-21T12:32:53.710Z,2.33
2019-05-21T12:33:58.194Z,2.10
2019-05-21T12:35:03.231Z,2.20
2019-05-21T12:36:08.277Z,2.30
2019-05-21T12:37:13.407Z,1.92
2019-05-21T12:38:18.165Z,2.45
2019-05-21T12:39:23.109Z,2.10
2019-05-21T12:40:27.955Z,2.20
2019-05-21T12:41:33.002Z,2.00
2019-05-21T12:42:37.403Z,1.95
2019-05-21T12:43:42.384Z,2.50
2019-05-21T12:44:46.813Z,3.08
2019-05-21T12:45:51.911Z,2.20
2019-05-21T12:46:56.490Z,4.17
2019-05-21T12:48:01.768Z,2.98
2019-05-21T12:49:06.617Z,2.42
2019-05-21T12:50:12.600Z,1.90
2019-05-21T12:51:17.010Z,2.20
2019-05-21T12:52:22.003Z,2.37
2019-05-21T12:53:27.467Z,2.42
2019-05-21T12:54:32.765Z,2.20
2019-05-21T12:55:37.244Z,2.33
2019-05-21T12:56:42.284Z,2.20
2019-05-21T12:57:48.041Z,2.80
2019-05-21T12:58:53.019Z,2.80
2019-05-21T12:59:57.513Z,2.40
2019-05-21T13:01:02.512Z,4.30
2019-05-21T13:02:07.007Z,3.10
2019-05-21T13:03:11.992Z,2.40
2019-05-21T13:04:16.486Z,2.72
2019-05-21T13:05:21.480Z,2.20
2019-05-21T13:06:25.887Z,1.87
2019-05-21T13:07:30.946Z,2.17
2019-05-21T13:08:35.344Z,2.02
2019-05-21T13:09:40.697Z,2.40
2019-05-21T13:10:45.669Z,2.00
2019-05-21T13:11:51.349Z,6.03
2019-05-21T13:12:56.795Z,3.20
2019-05-21T13:14:01.902Z,2.15
2019-05-21T13:15:07.757Z,2.20
2019-05-21T13:16:12.717Z,2.95
2019-05-21T13:17:17.142Z,2.70
2019-05-21T13:18:23.247Z,2.50
2019-05-21T13:19:28.229Z,2.45
2019-05-21T13:20:33.219Z,1.90
2019-05-21T13:21:37.787Z,2.65
2019-05-21T13:22:42.798Z,2.40
2019-05-21T13:23:47.279Z,2.17
2019-05-21T13:24:52.281Z,2.50
2019-05-21T13:25:56.916Z,4.05
2019-05-21T13:27:02.090Z,3.90
2019-05-21T13:28:06.915Z,2.60
2019-05-21T13:29:11.950Z,2.58
2019-05-21T13:30:16.730Z,2.90
2019-05-21T13:31:21.758Z,3.00
2019-05-21T13:32:26.316Z,3.40
2019-05-21T13:33:31.371Z,2.80
2019-05-21T13:34:36.213Z,2.90
2019-05-21T13:35:41.362Z,3.25
2019-05-21T13:36:45.772Z,3.42
2019-05-21T13:37:50.821Z,3.65
2019-05-21T13:38:55.326Z,3.92
2019-05-21T13:40:00.637Z,3.15
2019-05-21T13:41:05.664Z,4.03
2019-05-21T13:42:10.711Z,4.08
2019-05-21T13:43:15.264Z,5.05
2019-05-21T13:44:20.248Z,12.05
2019-05-21T13:45:24.702Z,6.22
2019-05-21T13:46:29.756Z,4.45
2019-05-21T13:47:34.379Z,5.65
2019-05-21T13:48:39.347Z,4.45
2019-05-21T13:49:43.941Z,4.17
2019-05-21T13:50:48.889Z,3.75
2019-05-21T13:51:53.300Z,3.42
2019-05-21T13:52:58.267Z,5.30
2019-05-21T13:54:02.754Z,3.55
2019-05-21T13:55:09.030Z,3.80
2019-05-21T13:56:14.080Z,4.87
2019-05-21T13:57:19.113Z,3.25
2019-05-21T13:58:23.527Z,6.50
2019-05-21T13:59:28.739Z,4.10
2019-05-21T14:00:35.009Z,2.83
2019-05-21T14:01:41.613Z,2.40
2019-05-21T14:02:46.554Z,2.80
2019-05-21T14:03:51.663Z,2.70
2019-05-21T14:04:56.249Z,2.60
2019-05-21T14:06:01.380Z,2.83
2019-05-21T14:07:05.894Z,2.30
2019-05-21T14:08:10.992Z,2.50
2019-05-21T14:09:15.441Z,3.08
2019-05-21T14:10:21.634Z,2.95
2019-05-21T14:11:26.820Z,2.60
2019-05-21T14:12:32.384Z,2.50
2019-05-21T14:13:36.894Z,2.27
2019-05-21T14:14:41.872Z,2.45
2019-05-21T14:15:46.363Z,2.65
2019-05-21T14:16:51.427Z,2.60
2019-05-21T14:17:55.838Z,2.55